KPLN/PLN METAR and TAF weather

Enter ICAO airport designator
Station Type Date Time Source
KPLN METAR 2022/06/25 22:54 UTC NOAA

KPLN 252254Z AUTO 27007G15KT 10SM CLR 23/14 A2996 RMK AO2 SLP142 T02330144


Station Type Date Time Source
KPLN Decoded METAR 2022/06/25 22:54 UTC NOAA

PELLSTON REGIONAL AIRPORT, MI, United States (KPLN) 45-34N 084-48W 217M
Jun 25, 2022 - 06:54 PM EDT / 2022.06.25 2254 UTC
Wind: from the W (270 degrees) at 8 MPH (7 KT) gusting to 17 MPH (15 KT):0
Visibility: 10 mile(s):0
Sky conditions: clear
Temperature: 73.9 F (23.3 C)
Dew Point: 57.9 F (14.4 C)
Relative Humidity: 57%
Pressure (altimeter): 29.96 in. Hg (1014 hPa)
ob: KPLN 252254Z AUTO 27007G15KT 10SM CLR 23/14 A2996 RMK AO2 SLP142 T02330144
cycle: 23

Station Type Date Time Source
KPLN TAF 2022/06/25 18:33 UTC NOAA

TAF KPLN 251731Z 2518/2618 21007KT P6SM SCT200
FM260000 25006KT 6SM -SHRA BR BKN100
FM260400 20005KT 6SM -SHRA BR OVC045
FM260800 23005KT P6SM VCSH OVC016
FM261200 27009KT P6SM BKN008
FM261400 27013KT P6SM SCT019

Example: see airport list